sensor_id;sensor_type;location;lat;lon;timestamp;P1;durP1;ratioP1;P2;durP2;ratioP2
13335;SDS011;6737;51.480;11.962;2023-12-20T00:01:26;6.03;;;5.43;;
13335;SDS011;6737;51.480;11.962;2023-12-20T00:03:52;6.23;;;5.50;;
13335;SDS011;6737;51.480;11.962;2023-12-20T00:06:18;5.70;;;5.20;;
13335;SDS011;6737;51.480;11.962;2023-12-20T00:08:44;5.73;;;5.20;;
13335;SDS011;6737;51.480;11.962;2023-12-20T00:11:09;5.73;;;5.13;;
13335;SDS011;6737;51.480;11.962;2023-12-20T00:13:35;5.70;;;5.10;;
13335;SDS011;6737;51.480;11.962;2023-12-20T00:16:01;5.67;;;5.13;;
13335;SDS011;6737;51.480;11.962;2023-12-20T00:18:26;5.63;;;5.03;;
13335;SDS011;6737;51.480;11.962;2023-12-20T00:20:52;5.70;;;5.20;;
13335;SDS011;6737;51.480;11.962;2023-12-20T00:23:18;5.53;;;4.93;;
13335;SDS011;6737;51.480;11.962;2023-12-20T00:25:44;5.33;;;4.83;;
13335;SDS011;6737;51.480;11.962;2023-12-20T00:28:09;5.70;;;5.17;;
13335;SDS011;6737;51.480;11.962;2023-12-20T00:30:35;6.30;;;5.27;;
13335;SDS011;6737;51.480;11.962;2023-12-20T00:33:01;6.00;;;5.40;;
13335;SDS011;6737;51.480;11.962;2023-12-20T00:35:27;6.00;;;5.40;;
13335;SDS011;6737;51.480;11.962;2023-12-20T00:37:53;5.47;;;4.97;;
13335;SDS011;6737;51.480;11.962;2023-12-20T00:40:19;6.00;;;5.40;;
13335;SDS011;6737;51.480;11.962;2023-12-20T00:42:46;6.10;;;5.50;;
13335;SDS011;6737;51.480;11.962;2023-12-20T00:45:12;5.90;;;5.40;;
13335;SDS011;6737;51.480;11.962;2023-12-20T00:47:38;5.87;;;5.27;;
13335;SDS011;6737;51.480;11.962;2023-12-20T00:50:04;5.80;;;5.13;;
13335;SDS011;6737;51.480;11.962;2023-12-20T00:52:30;5.90;;;5.30;;
13335;SDS011;6737;51.480;11.962;2023-12-20T00:54:56;6.30;;;5.20;;
13335;SDS011;6737;51.480;11.962;2023-12-20T00:57:21;5.47;;;4.97;;
13335;SDS011;6737;51.480;11.962;2023-12-20T00:59:47;5.60;;;5.10;;
13335;SDS011;6737;51.480;11.962;2023-12-20T01:02:13;5.40;;;4.90;;
13335;SDS011;6737;51.480;11.962;2023-12-20T01:04:39;5.70;;;5.20;;
13335;SDS011;6737;51.480;11.962;2023-12-20T01:07:04;5.70;;;5.20;;
13335;SDS011;6737;51.480;11.962;2023-12-20T01:09:30;5.97;;;5.37;;
13335;SDS011;6737;51.480;11.962;2023-12-20T01:11:56;5.37;;;4.87;;
13335;SDS011;6737;51.480;11.962;2023-12-20T01:14:22;5.40;;;4.90;;
13335;SDS011;6737;51.480;11.962;2023-12-20T01:16:47;5.73;;;5.20;;
13335;SDS011;6737;51.480;11.962;2023-12-20T01:19:13;5.23;;;4.73;;
13335;SDS011;6737;51.480;11.962;2023-12-20T01:21:40;5.50;;;5.00;;
13335;SDS011;6737;51.480;11.962;2023-12-20T01:24:05;5.50;;;5.00;;
13335;SDS011;6737;51.480;11.962;2023-12-20T01:26:31;5.33;;;4.83;;
13335;SDS011;6737;51.480;11.962;2023-12-20T01:28:57;6.17;;;5.17;;
13335;SDS011;6737;51.480;11.962;2023-12-20T01:31:23;6.00;;;5.40;;
13335;SDS011;6737;51.480;11.962;2023-12-20T01:33:48;5.17;;;4.70;;
13335;SDS011;6737;51.480;11.962;2023-12-20T01:36:14;5.37;;;4.80;;
13335;SDS011;6737;51.480;11.962;2023-12-20T01:38:40;5.40;;;4.90;;
13335;SDS011;6737;51.480;11.962;2023-12-20T01:41:06;5.47;;;4.87;;
13335;SDS011;6737;51.480;11.962;2023-12-20T01:43:32;5.87;;;5.27;;
13335;SDS011;6737;51.480;11.962;2023-12-20T01:45:58;5.20;;;4.70;;
13335;SDS011;6737;51.480;11.962;2023-12-20T01:48:24;6.00;;;5.40;;
13335;SDS011;6737;51.480;11.962;2023-12-20T01:50:51;5.60;;;5.10;;
13335;SDS011;6737;51.480;11.962;2023-12-20T01:53:18;6.30;;;5.70;;
13335;SDS011;6737;51.480;11.962;2023-12-20T01:55:46;6.23;;;5.70;;
13335;SDS011;6737;51.480;11.962;2023-12-20T01:58:14;5.90;;;5.30;;
13335;SDS011;6737;51.480;11.962;2023-12-20T02:00:40;5.60;;;5.10;;
13335;SDS011;6737;51.480;11.962;2023-12-20T02:03:06;7.17;;;5.50;;
13335;SDS011;6737;51.480;11.962;2023-12-20T02:05:33;6.27;;;5.67;;
13335;SDS011;6737;51.480;11.962;2023-12-20T02:08:00;6.27;;;5.67;;
13335;SDS011;6737;51.480;11.962;2023-12-20T02:10:26;5.70;;;5.20;;
13335;SDS011;6737;51.480;11.962;2023-12-20T02:12:53;5.90;;;5.37;;
13335;SDS011;6737;51.480;11.962;2023-12-20T02:15:19;5.97;;;5.37;;
13335;SDS011;6737;51.480;11.962;2023-12-20T02:17:45;6.13;;;5.53;;
13335;SDS011;6737;51.480;11.962;2023-12-20T02:20:13;6.30;;;5.70;;
13335;SDS011;6737;51.480;11.962;2023-12-20T02:22:39;5.77;;;5.20;;
13335;SDS011;6737;51.480;11.962;2023-12-20T02:25:05;6.10;;;5.50;;
13335;SDS011;6737;51.480;11.962;2023-12-20T02:27:31;6.40;;;5.80;;
13335;SDS011;6737;51.480;11.962;2023-12-20T02:29:57;5.87;;;5.33;;
13335;SDS011;6737;51.480;11.962;2023-12-20T02:32:24;5.87;;;5.27;;
13335;SDS011;6737;51.480;11.962;2023-12-20T02:34:52;6.20;;;5.60;;
13335;SDS011;6737;51.480;11.962;2023-12-20T02:37:19;5.40;;;4.90;;
13335;SDS011;6737;51.480;11.962;2023-12-20T02:39:45;5.80;;;5.30;;
13335;SDS011;6737;51.480;11.962;2023-12-20T02:42:11;5.97;;;5.37;;
13335;SDS011;6737;51.480;11.962;2023-12-20T02:44:37;5.67;;;5.10;;
13335;SDS011;6737;51.480;11.962;2023-12-20T02:47:02;5.73;;;5.20;;
13335;SDS011;6737;51.480;11.962;2023-12-20T02:49:28;6.10;;;5.50;;
13335;SDS011;6737;51.480;11.962;2023-12-20T02:51:54;5.80;;;5.30;;
13335;SDS011;6737;51.480;11.962;2023-12-20T02:54:20;5.87;;;5.27;;
13335;SDS011;6737;51.480;11.962;2023-12-20T02:56:46;6.03;;;5.30;;
13335;SDS011;6737;51.480;11.962;2023-12-20T02:59:12;6.27;;;4.70;;
13335;SDS011;6737;51.480;11.962;2023-12-20T03:01:41;5.50;;;5.00;;
13335;SDS011;6737;51.480;11.962;2023-12-20T03:04:08;6.00;;;5.40;;
13335;SDS011;6737;51.480;11.962;2023-12-20T03:06:34;6.03;;;5.43;;
13335;SDS011;6737;51.480;11.962;2023-12-20T03:09:00;6.60;;;5.43;;
13335;SDS011;6737;51.480;11.962;2023-12-20T03:11:28;5.90;;;5.30;;
13335;SDS011;6737;51.480;11.962;2023-12-20T03:13:55;5.70;;;5.20;;
13335;SDS011;6737;51.480;11.962;2023-12-20T03:16:21;6.20;;;5.23;;
13335;SDS011;6737;51.480;11.962;2023-12-20T03:18:47;6.20;;;5.60;;
13335;SDS011;6737;51.480;11.962;2023-12-20T03:21:12;6.30;;;5.30;;
13335;SDS011;6737;51.480;11.962;2023-12-20T03:23:39;5.87;;;5.27;;
13335;SDS011;6737;51.480;11.962;2023-12-20T03:26:08;6.67;;;5.23;;
13335;SDS011;6737;51.480;11.962;2023-12-20T03:28:35;6.33;;;5.73;;
13335;SDS011;6737;51.480;11.962;2023-12-20T03:31:02;6.00;;;5.40;;
13335;SDS011;6737;51.480;11.962;2023-12-20T03:33:28;6.43;;;5.83;;
13335;SDS011;6737;51.480;11.962;2023-12-20T03:35:54;6.43;;;5.73;;
13335;SDS011;6737;51.480;11.962;2023-12-20T03:38:21;5.97;;;5.37;;
13335;SDS011;6737;51.480;11.962;2023-12-20T03:40:49;5.97;;;5.37;;
13335;SDS011;6737;51.480;11.962;2023-12-20T03:43:15;6.13;;;5.50;;
13335;SDS011;6737;51.480;11.962;2023-12-20T03:45:41;5.97;;;5.47;;
13335;SDS011;6737;51.480;11.962;2023-12-20T03:48:07;7.47;;;5.40;;
13335;SDS011;6737;51.480;11.962;2023-12-20T03:50:34;5.37;;;4.87;;
13335;SDS011;6737;51.480;11.962;2023-12-20T03:53:00;5.27;;;4.77;;
13335;SDS011;6737;51.480;11.962;2023-12-20T03:55:26;5.40;;;4.90;;
13335;SDS011;6737;51.480;11.962;2023-12-20T03:57:52;5.40;;;4.90;;
13335;SDS011;6737;51.480;11.962;2023-12-20T04:00:17;5.43;;;4.93;;
13335;SDS011;6737;51.480;11.962;2023-12-20T04:02:43;5.10;;;4.60;;
13335;SDS011;6737;51.480;11.962;2023-12-20T04:05:09;5.17;;;4.67;;
13335;SDS011;6737;51.480;11.962;2023-12-20T04:07:36;5.33;;;4.77;;
13335;SDS011;6737;51.480;11.962;2023-12-20T04:10:02;5.83;;;5.10;;
13335;SDS011;6737;51.480;11.962;2023-12-20T04:12:29;4.90;;;4.40;;
13335;SDS011;6737;51.480;11.962;2023-12-20T04:14:55;5.63;;;5.13;;
13335;SDS011;6737;51.480;11.962;2023-12-20T04:17:21;5.60;;;5.00;;
13335;SDS011;6737;51.480;11.962;2023-12-20T04:19:50;4.97;;;4.47;;
13335;SDS011;6737;51.480;11.962;2023-12-20T04:22:19;4.90;;;4.40;;
13335;SDS011;6737;51.480;11.962;2023-12-20T04:24:45;4.67;;;4.20;;
13335;SDS011;6737;51.480;11.962;2023-12-20T04:27:11;5.07;;;4.57;;
13335;SDS011;6737;51.480;11.962;2023-12-20T04:29:37;5.57;;;4.87;;
13335;SDS011;6737;51.480;11.962;2023-12-20T04:32:03;5.67;;;4.90;;
13335;SDS011;6737;51.480;11.962;2023-12-20T04:34:30;5.53;;;5.03;;
13335;SDS011;6737;51.480;11.962;2023-12-20T04:36:55;6.37;;;5.03;;
13335;SDS011;6737;51.480;11.962;2023-12-20T04:39:21;5.77;;;5.00;;
13335;SDS011;6737;51.480;11.962;2023-12-20T04:41:47;6.40;;;4.60;;
13335;SDS011;6737;51.480;11.962;2023-12-20T04:44:13;5.73;;;4.33;;
13335;SDS011;6737;51.480;11.962;2023-12-20T04:46:39;4.47;;;4.07;;
13335;SDS011;6737;51.480;11.962;2023-12-20T04:49:05;4.27;;;3.83;;
13335;SDS011;6737;51.480;11.962;2023-12-20T04:51:33;5.00;;;4.50;;
13335;SDS011;6737;51.480;11.962;2023-12-20T04:54:00;4.80;;;4.30;;
13335;SDS011;6737;51.480;11.962;2023-12-20T04:56:26;5.10;;;4.13;;
13335;SDS011;6737;51.480;11.962;2023-12-20T04:58:51;4.50;;;4.10;;
13335;SDS011;6737;51.480;11.962;2023-12-20T05:01:17;4.70;;;4.30;;
13335;SDS011;6737;51.480;11.962;2023-12-20T05:03:43;5.20;;;4.70;;
13335;SDS011;6737;51.480;11.962;2023-12-20T05:06:09;4.47;;;4.07;;
13335;SDS011;6737;51.480;11.962;2023-12-20T05:08:35;4.90;;;4.07;;
13335;SDS011;6737;51.480;11.962;2023-12-20T05:11:01;4.77;;;4.27;;
13335;SDS011;6737;51.480;11.962;2023-12-20T05:13:27;4.37;;;3.97;;
13335;SDS011;6737;51.480;11.962;2023-12-20T05:15:52;5.80;;;4.50;;
13335;SDS011;6737;51.480;11.962;2023-12-20T05:18:20;4.67;;;4.03;;
13335;SDS011;6737;51.480;11.962;2023-12-20T05:20:46;4.27;;;3.87;;
13335;SDS011;6737;51.480;11.962;2023-12-20T05:23:12;4.70;;;4.07;;
13335;SDS011;6737;51.480;11.962;2023-12-20T05:25:38;6.57;;;3.83;;
13335;SDS011;6737;51.480;11.962;2023-12-20T05:28:04;4.43;;;3.97;;
13335;SDS011;6737;51.480;11.962;2023-12-20T05:30:30;4.70;;;3.90;;
13335;SDS011;6737;51.480;11.962;2023-12-20T05:32:56;4.87;;;3.63;;
13335;SDS011;6737;51.480;11.962;2023-12-20T05:35:22;4.27;;;3.87;;
13335;SDS011;6737;51.480;11.962;2023-12-20T05:37:49;4.40;;;4.00;;
13335;SDS011;6737;51.480;11.962;2023-12-20T05:40:15;5.27;;;3.87;;
13335;SDS011;6737;51.480;11.962;2023-12-20T05:42:41;4.23;;;3.83;;
13335;SDS011;6737;51.480;11.962;2023-12-20T05:45:08;7.73;;;4.00;;
13335;SDS011;6737;51.480;11.962;2023-12-20T05:47:34;3.90;;;3.60;;
13335;SDS011;6737;51.480;11.962;2023-12-20T05:50:00;4.83;;;3.90;;
13335;SDS011;6737;51.480;11.962;2023-12-20T05:52:26;4.27;;;3.67;;
13335;SDS011;6737;51.480;11.962;2023-12-20T05:54:52;5.13;;;3.60;;
13335;SDS011;6737;51.480;11.962;2023-12-20T05:57:18;4.40;;;3.67;;
13335;SDS011;6737;51.480;11.962;2023-12-20T05:59:44;4.70;;;3.70;;
13335;SDS011;6737;51.480;11.962;2023-12-20T06:02:09;5.40;;;3.73;;
13335;SDS011;6737;51.480;11.962;2023-12-20T06:04:35;3.97;;;3.50;;
13335;SDS011;6737;51.480;11.962;2023-12-20T06:07:02;4.10;;;3.70;;
13335;SDS011;6737;51.480;11.962;2023-12-20T06:09:28;4.30;;;3.60;;
13335;SDS011;6737;51.480;11.962;2023-12-20T06:11:55;5.77;;;3.90;;
13335;SDS011;6737;51.480;11.962;2023-12-20T06:14:20;5.10;;;3.90;;
13335;SDS011;6737;51.480;11.962;2023-12-20T06:16:46;4.83;;;4.07;;
13335;SDS011;6737;51.480;11.962;2023-12-20T06:19:12;5.87;;;3.50;;
13335;SDS011;6737;51.480;11.962;2023-12-20T06:21:38;4.30;;;3.80;;
13335;SDS011;6737;51.480;11.962;2023-12-20T06:24:04;5.27;;;3.70;;
13335;SDS011;6737;51.480;11.962;2023-12-20T06:26:30;5.23;;;4.10;;
13335;SDS011;6737;51.480;11.962;2023-12-20T06:28:56;7.33;;;4.30;;
13335;SDS011;6737;51.480;11.962;2023-12-20T06:31:21;7.73;;;4.40;;
13335;SDS011;6737;51.480;11.962;2023-12-20T06:33:47;4.70;;;3.80;;
13335;SDS011;6737;51.480;11.962;2023-12-20T06:36:22;4.77;;;3.70;;
13335;SDS011;6737;51.480;11.962;2023-12-20T06:38:49;5.63;;;4.63;;
13335;SDS011;6737;51.480;11.962;2023-12-20T06:41:15;6.53;;;4.63;;
13335;SDS011;6737;51.480;11.962;2023-12-20T06:43:42;6.57;;;4.90;;
13335;SDS011;6737;51.480;11.962;2023-12-20T06:46:08;5.63;;;5.03;;
13335;SDS011;6737;51.480;11.962;2023-12-20T06:48:34;6.73;;;4.93;;
13335;SDS011;6737;51.480;11.962;2023-12-20T06:51:00;5.80;;;4.50;;
13335;SDS011;6737;51.480;11.962;2023-12-20T06:53:30;5.20;;;4.20;;
13335;SDS011;6737;51.480;11.962;2023-12-20T06:55:56;5.57;;;4.00;;
13335;SDS011;6737;51.480;11.962;2023-12-20T06:58:22;5.67;;;3.90;;
13335;SDS011;6737;51.480;11.962;2023-12-20T07:00:48;5.90;;;3.93;;
13335;SDS011;6737;51.480;11.962;2023-12-20T07:03:14;5.67;;;3.90;;
13335;SDS011;6737;51.480;11.962;2023-12-20T07:05:40;7.07;;;3.77;;
13335;SDS011;6737;51.480;11.962;2023-12-20T07:08:06;6.73;;;3.90;;
13335;SDS011;6737;51.480;11.962;2023-12-20T07:10:32;6.00;;;3.50;;
13335;SDS011;6737;51.480;11.962;2023-12-20T07:12:58;5.87;;;3.40;;
13335;SDS011;6737;51.480;11.962;2023-12-20T07:15:24;5.70;;;3.30;;
13335;SDS011;6737;51.480;11.962;2023-12-20T07:17:50;6.17;;;2.60;;
13335;SDS011;6737;51.480;11.962;2023-12-20T07:20:16;7.17;;;2.50;;
13335;SDS011;6737;51.480;11.962;2023-12-20T07:22:42;5.17;;;2.30;;
13335;SDS011;6737;51.480;11.962;2023-12-20T07:25:08;4.87;;;2.07;;
13335;SDS011;6737;51.480;11.962;2023-12-20T07:27:34;4.60;;;2.03;;
13335;SDS011;6737;51.480;11.962;2023-12-20T07:30:00;6.77;;;1.93;;
13335;SDS011;6737;51.480;11.962;2023-12-20T07:32:26;4.90;;;1.60;;
13335;SDS011;6737;51.480;11.962;2023-12-20T07:34:52;6.53;;;1.87;;
13335;SDS011;6737;51.480;11.962;2023-12-20T07:37:18;4.97;;;1.67;;
13335;SDS011;6737;51.480;11.962;2023-12-20T07:39:44;7.00;;;1.90;;
13335;SDS011;6737;51.480;11.962;2023-12-20T07:42:10;3.20;;;1.70;;
13335;SDS011;6737;51.480;11.962;2023-12-20T07:44:36;5.13;;;1.90;;
13335;SDS011;6737;51.480;11.962;2023-12-20T07:47:02;4.33;;;1.67;;
13335;SDS011;6737;51.480;11.962;2023-12-20T07:49:28;5.27;;;1.83;;
13335;SDS011;6737;51.480;11.962;2023-12-20T07:51:55;4.40;;;1.50;;
13335;SDS011;6737;51.480;11.962;2023-12-20T07:54:21;5.03;;;2.03;;
13335;SDS011;6737;51.480;11.962;2023-12-20T07:56:47;4.87;;;1.63;;
13335;SDS011;6737;51.480;11.962;2023-12-20T07:59:14;3.87;;;1.60;;
13335;SDS011;6737;51.480;11.962;2023-12-20T08:01:40;5.73;;;1.80;;
13335;SDS011;6737;51.480;11.962;2023-12-20T08:04:06;4.27;;;1.67;;
13335;SDS011;6737;51.480;11.962;2023-12-20T08:06:32;5.03;;;1.80;;
13335;SDS011;6737;51.480;11.962;2023-12-20T08:08:58;5.20;;;1.90;;
13335;SDS011;6737;51.480;11.962;2023-12-20T08:11:23;5.30;;;1.80;;
13335;SDS011;6737;51.480;11.962;2023-12-20T08:13:49;7.53;;;1.80;;
13335;SDS011;6737;51.480;11.962;2023-12-20T08:16:15;4.97;;;1.90;;
13335;SDS011;6737;51.480;11.962;2023-12-20T08:18:43;6.23;;;1.83;;
13335;SDS011;6737;51.480;11.962;2023-12-20T08:21:09;8.63;;;1.93;;
13335;SDS011;6737;51.480;11.962;2023-12-20T08:23:35;4.67;;;1.70;;
13335;SDS011;6737;51.480;11.962;2023-12-20T08:26:19;4.17;;;1.40;;
13335;SDS011;6737;51.480;11.962;2023-12-20T08:28:46;4.80;;;1.63;;
13335;SDS011;6737;51.480;11.962;2023-12-20T08:31:18;4.30;;;1.90;;
13335;SDS011;6737;51.480;11.962;2023-12-20T08:33:46;5.17;;;1.93;;
13335;SDS011;6737;51.480;11.962;2023-12-20T08:36:14;3.67;;;1.50;;
13335;SDS011;6737;51.480;11.962;2023-12-20T08:38:40;7.57;;;1.73;;
13335;SDS011;6737;51.480;11.962;2023-12-20T08:41:06;7.37;;;1.90;;
13335;SDS011;6737;51.480;11.962;2023-12-20T08:43:33;5.13;;;1.60;;
13335;SDS011;6737;51.480;11.962;2023-12-20T08:46:01;4.50;;;2.03;;
13335;SDS011;6737;51.480;11.962;2023-12-20T08:48:27;6.17;;;1.63;;
13335;SDS011;6737;51.480;11.962;2023-12-20T08:50:54;5.37;;;1.77;;
13335;SDS011;6737;51.480;11.962;2023-12-20T08:53:19;6.47;;;1.60;;
13335;SDS011;6737;51.480;11.962;2023-12-20T08:55:46;5.10;;;1.77;;
13335;SDS011;6737;51.480;11.962;2023-12-20T08:58:12;7.63;;;1.90;;
13335;SDS011;6737;51.480;11.962;2023-12-20T09:00:38;7.63;;;1.90;;
13335;SDS011;6737;51.480;11.962;2023-12-20T09:03:04;7.50;;;1.77;;
13335;SDS011;6737;51.480;11.962;2023-12-20T09:05:30;6.43;;;1.80;;
13335;SDS011;6737;51.480;11.962;2023-12-20T09:07:56;5.40;;;1.60;;
13335;SDS011;6737;51.480;11.962;2023-12-20T09:10:21;5.33;;;1.87;;
13335;SDS011;6737;51.480;11.962;2023-12-20T09:12:51;4.80;;;1.80;;
13335;SDS011;6737;51.480;11.962;2023-12-20T09:15:22;6.37;;;1.80;;
13335;SDS011;6737;51.480;11.962;2023-12-20T09:17:49;9.77;;;2.23;;
13335;SDS011;6737;51.480;11.962;2023-12-20T09:20:15;5.07;;;1.83;;
13335;SDS011;6737;51.480;11.962;2023-12-20T09:22:41;6.03;;;1.80;;
13335;SDS011;6737;51.480;11.962;2023-12-20T09:25:07;6.83;;;1.90;;
13335;SDS011;6737;51.480;11.962;2023-12-20T09:27:35;4.30;;;2.10;;
13335;SDS011;6737;51.480;11.962;2023-12-20T09:30:01;5.93;;;1.90;;
13335;SDS011;6737;51.480;11.962;2023-12-20T09:32:30;5.03;;;1.60;;
13335;SDS011;6737;51.480;11.962;2023-12-20T09:34:56;5.97;;;1.93;;
13335;SDS011;6737;51.480;11.962;2023-12-20T09:37:26;5.73;;;1.93;;
13335;SDS011;6737;51.480;11.962;2023-12-20T09:39:53;8.97;;;2.20;;
13335;SDS011;6737;51.480;11.962;2023-12-20T09:42:29;6.50;;;2.13;;
13335;SDS011;6737;51.480;11.962;2023-12-20T09:45:13;4.33;;;1.93;;
13335;SDS011;6737;51.480;11.962;2023-12-20T09:47:43;5.67;;;1.97;;
13335;SDS011;6737;51.480;11.962;2023-12-20T09:50:10;4.47;;;1.70;;
13335;SDS011;6737;51.480;11.962;2023-12-20T09:52:37;4.97;;;2.13;;
13335;SDS011;6737;51.480;11.962;2023-12-20T09:55:05;5.20;;;2.10;;
13335;SDS011;6737;51.480;11.962;2023-12-20T09:57:33;5.93;;;2.20;;
13335;SDS011;6737;51.480;11.962;2023-12-20T09:59:59;4.83;;;2.47;;
13335;SDS011;6737;51.480;11.962;2023-12-20T10:02:25;5.40;;;2.17;;
13335;SDS011;6737;51.480;11.962;2023-12-20T10:04:54;3.30;;;1.97;;
13335;SDS011;6737;51.480;11.962;2023-12-20T10:07:20;5.20;;;2.23;;
13335;SDS011;6737;51.480;11.962;2023-12-20T10:09:47;3.77;;;2.10;;
13335;SDS011;6737;51.480;11.962;2023-12-20T10:12:13;6.23;;;2.10;;
13335;SDS011;6737;51.480;11.962;2023-12-20T10:14:39;4.33;;;2.20;;
13335;SDS011;6737;51.480;11.962;2023-12-20T10:17:05;5.27;;;2.03;;
13335;SDS011;6737;51.480;11.962;2023-12-20T10:19:32;5.60;;;2.30;;
13335;SDS011;6737;51.480;11.962;2023-12-20T10:22:04;4.57;;;2.27;;
13335;SDS011;6737;51.480;11.962;2023-12-20T10:24:30;7.07;;;2.30;;
13335;SDS011;6737;51.480;11.962;2023-12-20T10:27:03;4.67;;;2.10;;
13335;SDS011;6737;51.480;11.962;2023-12-20T10:29:36;3.90;;;2.20;;
13335;SDS011;6737;51.480;11.962;2023-12-20T10:32:22;6.17;;;2.47;;
13335;SDS011;6737;51.480;11.962;2023-12-20T10:34:50;5.47;;;2.50;;
13335;SDS011;6737;51.480;11.962;2023-12-20T10:37:17;5.53;;;2.63;;
13335;SDS011;6737;51.480;11.962;2023-12-20T10:39:43;8.23;;;2.57;;
13335;SDS011;6737;51.480;11.962;2023-12-20T10:42:12;4.10;;;2.00;;
13335;SDS011;6737;51.480;11.962;2023-12-20T10:44:39;6.23;;;2.67;;
13335;SDS011;6737;51.480;11.962;2023-12-20T10:47:05;6.63;;;2.23;;
13335;SDS011;6737;51.480;11.962;2023-12-20T10:49:34;4.50;;;2.23;;
13335;SDS011;6737;51.480;11.962;2023-12-20T10:52:02;4.90;;;2.37;;
13335;SDS011;6737;51.480;11.962;2023-12-20T10:54:30;6.73;;;2.50;;
13335;SDS011;6737;51.480;11.962;2023-12-20T10:56:57;8.40;;;2.60;;
13335;SDS011;6737;51.480;11.962;2023-12-20T10:59:24;5.30;;;2.20;;
13335;SDS011;6737;51.480;11.962;2023-12-20T11:01:50;7.53;;;2.40;;
13335;SDS011;6737;51.480;11.962;2023-12-20T11:04:19;7.70;;;2.30;;
13335;SDS011;6737;51.480;11.962;2023-12-20T11:06:53;6.17;;;2.20;;
13335;SDS011;6737;51.480;11.962;2023-12-20T11:09:26;7.50;;;2.37;;
13335;SDS011;6737;51.480;11.962;2023-12-20T11:14:27;8.23;;;2.33;;
13335;SDS011;6737;51.480;11.962;2023-12-20T11:17:08;6.30;;;2.10;;
13335;SDS011;6737;51.480;11.962;2023-12-20T11:19:43;6.13;;;2.47;;
13335;SDS011;6737;51.480;11.962;2023-12-20T11:22:24;5.07;;;1.70;;
13335;SDS011;6737;51.480;11.962;2023-12-20T11:24:51;5.17;;;2.00;;
13335;SDS011;6737;51.480;11.962;2023-12-20T11:27:18;5.20;;;2.03;;
13335;SDS011;6737;51.480;11.962;2023-12-20T11:29:51;6.57;;;1.83;;
13335;SDS011;6737;51.480;11.962;2023-12-20T11:37:21;5.57;;;1.90;;
13335;SDS011;6737;51.480;11.962;2023-12-20T11:39:56;5.33;;;1.90;;
13335;SDS011;6737;51.480;11.962;2023-12-20T11:42:50;6.17;;;2.00;;
13335;SDS011;6737;51.480;11.962;2023-12-20T11:45:18;6.97;;;2.40;;
13335;SDS011;6737;51.480;11.962;2023-12-20T11:47:47;5.63;;;2.00;;
13335;SDS011;6737;51.480;11.962;2023-12-20T11:50:19;5.70;;;1.90;;
13335;SDS011;6737;51.480;11.962;2023-12-20T11:52:47;7.03;;;1.80;;
13335;SDS011;6737;51.480;11.962;2023-12-20T11:55:14;6.60;;;2.10;;
13335;SDS011;6737;51.480;11.962;2023-12-20T11:57:40;7.63;;;2.00;;
13335;SDS011;6737;51.480;11.962;2023-12-20T12:00:06;4.87;;;1.87;;
13335;SDS011;6737;51.480;11.962;2023-12-20T12:02:33;5.37;;;1.80;;
13335;SDS011;6737;51.480;11.962;2023-12-20T12:04:59;4.97;;;1.80;;
13335;SDS011;6737;51.480;11.962;2023-12-20T12:07:25;4.93;;;1.93;;
13335;SDS011;6737;51.480;11.962;2023-12-20T12:09:51;5.73;;;2.03;;
13335;SDS011;6737;51.480;11.962;2023-12-20T12:12:17;5.63;;;2.03;;
13335;SDS011;6737;51.480;11.962;2023-12-20T12:14:45;5.27;;;2.00;;
13335;SDS011;6737;51.480;11.962;2023-12-20T12:17:14;4.70;;;1.77;;
13335;SDS011;6737;51.480;11.962;2023-12-20T12:19:41;6.37;;;2.13;;
13335;SDS011;6737;51.480;11.962;2023-12-20T12:22:08;4.83;;;1.90;;
13335;SDS011;6737;51.480;11.962;2023-12-20T12:24:42;5.73;;;1.97;;
13335;SDS011;6737;51.480;11.962;2023-12-20T12:27:09;3.53;;;1.80;;
13335;SDS011;6737;51.480;11.962;2023-12-20T12:29:36;3.60;;;1.70;;
13335;SDS011;6737;51.480;11.962;2023-12-20T12:32:09;5.60;;;1.80;;
13335;SDS011;6737;51.480;11.962;2023-12-20T12:34:35;4.07;;;1.60;;
13335;SDS011;6737;51.480;11.962;2023-12-20T12:37:01;4.97;;;1.70;;
13335;SDS011;6737;51.480;11.962;2023-12-20T12:39:32;6.63;;;1.80;;
13335;SDS011;6737;51.480;11.962;2023-12-20T12:41:57;4.47;;;1.80;;
13335;SDS011;6737;51.480;11.962;2023-12-20T12:44:24;4.87;;;1.60;;
13335;SDS011;6737;51.480;11.962;2023-12-20T12:46:50;4.93;;;1.70;;
13335;SDS011;6737;51.480;11.962;2023-12-20T12:49:21;4.43;;;1.60;;
13335;SDS011;6737;51.480;11.962;2023-12-20T12:51:47;5.17;;;1.60;;
13335;SDS011;6737;51.480;11.962;2023-12-20T12:54:13;4.50;;;1.90;;
13335;SDS011;6737;51.480;11.962;2023-12-20T12:56:41;3.83;;;1.60;;
13335;SDS011;6737;51.480;11.962;2023-12-20T12:59:08;4.47;;;1.80;;
13335;SDS011;6737;51.480;11.962;2023-12-20T13:01:34;3.97;;;1.80;;
13335;SDS011;6737;51.480;11.962;2023-12-20T13:04:00;6.57;;;1.70;;
13335;SDS011;6737;51.480;11.962;2023-12-20T13:06:28;5.70;;;1.80;;
13335;SDS011;6737;51.480;11.962;2023-12-20T13:08:54;4.30;;;1.77;;
13335;SDS011;6737;51.480;11.962;2023-12-20T13:11:20;4.40;;;1.70;;
13335;SDS011;6737;51.480;11.962;2023-12-20T13:13:46;5.47;;;1.60;;
13335;SDS011;6737;51.480;11.962;2023-12-20T13:16:12;4.70;;;1.57;;
13335;SDS011;6737;51.480;11.962;2023-12-20T13:18:38;4.10;;;1.53;;
13335;SDS011;6737;51.480;11.962;2023-12-20T13:21:08;4.93;;;1.70;;
13335;SDS011;6737;51.480;11.962;2023-12-20T13:23:34;4.50;;;1.73;;
13335;SDS011;6737;51.480;11.962;2023-12-20T13:26:00;3.87;;;1.60;;
13335;SDS011;6737;51.480;11.962;2023-12-20T13:28:26;5.07;;;1.70;;
13335;SDS011;6737;51.480;11.962;2023-12-20T13:30:51;7.03;;;1.97;;
13335;SDS011;6737;51.480;11.962;2023-12-20T13:33:17;5.20;;;1.60;;
13335;SDS011;6737;51.480;11.962;2023-12-20T13:35:44;3.30;;;1.50;;
13335;SDS011;6737;51.480;11.962;2023-12-20T13:38:09;4.33;;;1.63;;
13335;SDS011;6737;51.480;11.962;2023-12-20T13:40:37;5.57;;;1.70;;
13335;SDS011;6737;51.480;11.962;2023-12-20T13:43:03;5.77;;;1.87;;
13335;SDS011;6737;51.480;11.962;2023-12-20T13:45:29;3.83;;;1.40;;
13335;SDS011;6737;51.480;11.962;2023-12-20T13:47:55;4.37;;;1.60;;
13335;SDS011;6737;51.480;11.962;2023-12-20T13:50:21;3.60;;;1.63;;
13335;SDS011;6737;51.480;11.962;2023-12-20T13:52:47;3.73;;;1.80;;
13335;SDS011;6737;51.480;11.962;2023-12-20T13:55:13;2.50;;;1.40;;
13335;SDS011;6737;51.480;11.962;2023-12-20T13:57:39;4.60;;;1.60;;
13335;SDS011;6737;51.480;11.962;2023-12-20T14:00:06;5.17;;;1.80;;
13335;SDS011;6737;51.480;11.962;2023-12-20T14:02:40;3.83;;;1.70;;
13335;SDS011;6737;51.480;11.962;2023-12-20T14:05:07;3.83;;;1.70;;
13335;SDS011;6737;51.480;11.962;2023-12-20T14:07:36;3.43;;;1.70;;
13335;SDS011;6737;51.480;11.962;2023-12-20T14:10:03;5.30;;;1.50;;
13335;SDS011;6737;51.480;11.962;2023-12-20T14:12:29;3.10;;;1.60;;
13335;SDS011;6737;51.480;11.962;2023-12-20T14:14:55;4.10;;;1.77;;
13335;SDS011;6737;51.480;11.962;2023-12-20T14:17:21;7.10;;;1.40;;
13335;SDS011;6737;51.480;11.962;2023-12-20T14:19:47;4.93;;;1.90;;
13335;SDS011;6737;51.480;11.962;2023-12-20T14:22:13;5.17;;;1.70;;
13335;SDS011;6737;51.480;11.962;2023-12-20T14:24:42;3.47;;;1.80;;
13335;SDS011;6737;51.480;11.962;2023-12-20T14:27:08;9.67;;;2.57;;
13335;SDS011;6737;51.480;11.962;2023-12-20T14:29:38;11.30;;;4.33;;
13335;SDS011;6737;51.480;11.962;2023-12-20T14:32:04;3.77;;;1.70;;
13335;SDS011;6737;51.480;11.962;2023-12-20T14:34:31;2.77;;;1.40;;
13335;SDS011;6737;51.480;11.962;2023-12-20T14:36:57;3.80;;;2.13;;
13335;SDS011;6737;51.480;11.962;2023-12-20T14:39:23;9.83;;;2.93;;
13335;SDS011;6737;51.480;11.962;2023-12-20T14:41:49;5.40;;;1.80;;
13335;SDS011;6737;51.480;11.962;2023-12-20T14:44:15;8.03;;;3.00;;
13335;SDS011;6737;51.480;11.962;2023-12-20T14:46:42;4.50;;;2.10;;
13335;SDS011;6737;51.480;11.962;2023-12-20T14:49:07;4.30;;;1.50;;
13335;SDS011;6737;51.480;11.962;2023-12-20T14:51:33;6.63;;;2.47;;
13335;SDS011;6737;51.480;11.962;2023-12-20T14:54:00;2.60;;;1.57;;